createdAt,value
2022-10-24T00:01:27.243Z,12.57
2022-10-24T00:03:54.931Z,16.90
2022-10-24T00:06:22.523Z,23.50
2022-10-24T00:08:50.165Z,19.02
2022-10-24T00:11:24.627Z,12.52
2022-10-24T00:13:53.440Z,12.68
2022-10-24T00:16:21.211Z,18.55
2022-10-24T00:18:48.765Z,15.25
2022-10-24T00:21:16.192Z,13.98
2022-10-24T00:23:43.734Z,17.75
2022-10-24T00:26:12.011Z,17.80
2022-10-24T00:28:40.288Z,15.05
2022-10-24T00:31:09.183Z,19.33
2022-10-24T00:33:36.790Z,10.75
2022-10-24T00:36:04.357Z,14.75
2022-10-24T00:38:31.752Z,14.65
2022-10-24T00:40:59.191Z,16.00
2022-10-24T00:43:27.269Z,13.98
2022-10-24T00:45:57.511Z,15.07
2022-10-24T00:48:37.186Z,14.13
2022-10-24T00:51:28.137Z,17.08
2022-10-24T00:54:03.299Z,16.15
2022-10-24T00:56:45.930Z,15.95
2022-10-24T00:59:15.718Z,14.02
2022-10-24T01:01:45.108Z,15.65
2022-10-24T01:04:13.941Z,17.25
2022-10-24T01:06:46.591Z,19.30
2022-10-24T01:09:29.265Z,15.57
2022-10-24T01:12:20.676Z,20.58
2022-10-24T01:15:14.207Z,18.00
2022-10-24T01:17:52.823Z,13.30
2022-10-24T01:20:48.597Z,13.40
2022-10-24T01:23:27.024Z,16.40
2022-10-24T01:26:30.155Z,18.45
2022-10-24T01:29:19.221Z,14.35
2022-10-24T01:32:13.915Z,15.50
2022-10-24T01:34:44.564Z,10.45
2022-10-24T01:37:48.716Z,9.25
2022-10-24T01:40:22.865Z,13.20
2022-10-24T01:42:52.361Z,15.60
2022-10-24T01:45:30.013Z,14.98
2022-10-24T01:48:00.173Z,15.77
2022-10-24T01:50:29.748Z,13.07
2022-10-24T01:52:59.021Z,12.27
2022-10-24T01:55:26.866Z,15.80
2022-10-24T01:57:54.293Z,17.52
2022-10-24T02:00:23.845Z,10.85
2022-10-24T02:03:16.969Z,16.05
2022-10-24T02:05:49.406Z,18.50
2022-10-24T02:08:21.968Z,18.75
2022-10-24T02:10:54.089Z,10.52
2022-10-24T02:13:31.907Z,13.38
2022-10-24T02:16:02.971Z,12.00
2022-10-24T02:18:32.612Z,12.32
2022-10-24T02:21:07.135Z,14.75
2022-10-24T02:23:57.157Z,16.75
2022-10-24T02:26:54.060Z,18.10
2022-10-24T02:29:34.392Z,16.05
2022-10-24T02:32:06.307Z,12.45
2022-10-24T02:34:35.524Z,13.48
2022-10-24T02:37:04.115Z,14.50
2022-10-24T02:39:33.271Z,15.30
2022-10-24T02:42:03.066Z,11.20
2022-10-24T02:44:32.182Z,15.23
2022-10-24T02:47:02.367Z,16.42
2022-10-24T02:49:29.853Z,12.00
2022-10-24T02:51:57.429Z,9.63
2022-10-24T02:54:24.996Z,13.02
2022-10-24T02:56:56.678Z,13.23
2022-10-24T02:59:24.170Z,11.32
2022-10-24T03:01:51.607Z,16.35
2022-10-24T03:04:19.169Z,14.40
2022-10-24T03:06:46.651Z,11.93
2022-10-24T03:09:14.152Z,21.27
2022-10-24T03:11:41.740Z,12.13
2022-10-24T03:14:09.175Z,11.38
2022-10-24T03:16:36.638Z,12.05
2022-10-24T03:19:04.228Z,13.55
2022-10-24T03:21:31.849Z,11.30
2022-10-24T03:23:59.523Z,11.38
2022-10-24T03:26:27.025Z,12.52
2022-10-24T03:28:54.442Z,12.50
2022-10-24T03:31:21.931Z,14.00
2022-10-24T03:33:49.321Z,9.23
2022-10-24T03:36:17.234Z,14.52
2022-10-24T03:38:44.749Z,10.05
2022-10-24T03:41:12.157Z,16.40
2022-10-24T03:43:39.532Z,23.33
2022-10-24T03:46:07.129Z,17.50
2022-10-24T03:48:34.641Z,17.73
2022-10-24T03:51:02.143Z,17.80
2022-10-24T03:53:29.815Z,14.20
2022-10-24T03:55:57.534Z,15.93
2022-10-24T03:58:25.110Z,22.33
2022-10-24T04:00:52.949Z,12.75
2022-10-24T04:03:20.380Z,13.60
2022-10-24T04:05:47.817Z,13.45
2022-10-24T04:08:15.304Z,15.40
2022-10-24T04:10:42.735Z,15.18
2022-10-24T04:13:10.212Z,20.10
2022-10-24T04:15:37.696Z,16.65
2022-10-24T04:18:05.247Z,14.50
2022-10-24T04:20:32.684Z,16.05
2022-10-24T04:23:02.357Z,15.45
2022-10-24T04:25:31.971Z,21.92
2022-10-24T04:27:59.398Z,20.13
2022-10-24T04:30:28.743Z,20.98
2022-10-24T04:32:56.903Z,16.60
2022-10-24T04:35:25.854Z,12.93
2022-10-24T04:37:53.703Z,15.50
2022-10-24T04:40:21.250Z,20.83
2022-10-24T04:42:48.658Z,12.40
2022-10-24T04:45:16.229Z,14.27
2022-10-24T04:47:43.927Z,12.55
2022-10-24T04:50:11.634Z,22.95
2022-10-24T04:52:39.198Z,14.88
2022-10-24T04:55:06.904Z,13.60
2022-10-24T04:57:34.256Z,16.10
2022-10-24T05:00:01.692Z,16.15
2022-10-24T05:02:29.240Z,26.48
2022-10-24T05:04:56.742Z,26.15
2022-10-24T05:07:24.128Z,15.95
2022-10-24T05:09:51.473Z,14.95
2022-10-24T05:17:18.412Z,17.75
2022-10-24T05:19:45.940Z,13.25
2022-10-24T05:22:13.365Z,13.45
2022-10-24T05:24:40.979Z,19.15
2022-10-24T05:27:08.408Z,23.13
2022-10-24T05:29:37.046Z,20.38
2022-10-24T05:32:05.001Z,20.83
2022-10-24T05:34:32.488Z,22.35
2022-10-24T05:36:59.998Z,24.75
2022-10-24T05:39:28.160Z,16.77
2022-10-24T05:41:55.672Z,21.80
2022-10-24T05:44:23.344Z,18.38
2022-10-24T05:46:50.794Z,15.98
2022-10-24T05:49:18.635Z,17.52
2022-10-24T05:51:46.062Z,17.15
2022-10-24T05:59:13.133Z,20.50
2022-10-24T06:01:41.142Z,18.92
2022-10-24T06:04:11.366Z,17.23
2022-10-24T06:06:44.166Z,14.30
2022-10-24T06:09:12.675Z,15.63
2022-10-24T06:11:40.212Z,32.10
2022-10-24T06:14:07.623Z,24.30
2022-10-24T06:16:35.551Z,20.80
2022-10-24T06:19:03.099Z,15.52
2022-10-24T06:21:30.529Z,22.63
2022-10-24T06:23:58.222Z,18.17
2022-10-24T06:26:26.157Z,20.05
2022-10-24T06:28:54.737Z,16.67
2022-10-24T06:31:22.248Z,19.25
2022-10-24T06:33:50.287Z,28.38
2022-10-24T06:36:17.832Z,22.27
2022-10-24T06:38:45.342Z,29.50
2022-10-24T06:41:14.640Z,22.55
2022-10-24T06:43:42.543Z,18.52
2022-10-24T06:46:13.121Z,24.38
2022-10-24T06:48:40.603Z,32.10
2022-10-24T06:51:08.332Z,28.42
2022-10-24T06:53:35.828Z,25.20
2022-10-24T06:56:05.418Z,27.48
2022-10-24T06:58:35.373Z,28.92
2022-10-24T07:01:11.078Z,27.92
2022-10-24T07:03:38.672Z,27.38
2022-10-24T07:06:12.093Z,25.40
2022-10-24T07:08:39.595Z,28.00
2022-10-24T07:11:07.188Z,36.97
2022-10-24T07:13:34.654Z,30.88
2022-10-24T07:16:02.070Z,26.30
2022-10-24T07:18:29.494Z,31.60
2022-10-24T07:21:02.417Z,32.95
2022-10-24T07:23:29.955Z,31.67
2022-10-24T07:26:08.469Z,55.20
2022-10-24T07:28:38.103Z,28.85
2022-10-24T07:31:06.591Z,24.27
2022-10-24T07:33:34.438Z,35.95
2022-10-24T07:36:01.818Z,33.15
2022-10-24T07:38:29.270Z,31.67
2022-10-24T07:40:56.755Z,37.83
2022-10-24T07:43:24.391Z,36.97
2022-10-24T07:45:52.326Z,34.67
2022-10-24T07:48:20.157Z,33.70
2022-10-24T07:50:48.260Z,27.75
2022-10-24T07:53:15.816Z,27.98
2022-10-24T07:55:44.085Z,34.92
2022-10-24T07:58:12.213Z,32.90
2022-10-24T08:00:44.866Z,32.90
2022-10-24T08:03:13.584Z,41.30
2022-10-24T08:05:41.742Z,24.02
2022-10-24T08:08:30.665Z,30.73
2022-10-24T08:10:57.559Z,33.80
2022-10-24T08:13:25.187Z,36.88
2022-10-24T08:15:52.661Z,32.47
2022-10-24T08:18:20.048Z,34.08
2022-10-24T08:20:57.914Z,34.53
2022-10-24T08:23:25.720Z,28.33
2022-10-24T08:25:53.709Z,30.10
2022-10-24T08:28:21.258Z,40.65
2022-10-24T08:30:59.643Z,29.45
2022-10-24T08:33:27.255Z,31.50
2022-10-24T08:35:59.268Z,34.45
2022-10-24T08:38:28.204Z,28.45
2022-10-24T08:40:57.127Z,26.20
2022-10-24T08:43:25.643Z,28.00
2022-10-24T08:45:53.027Z,32.15
2022-10-24T08:48:28.435Z,30.33
2022-10-24T08:51:08.996Z,37.88
2022-10-24T08:53:36.830Z,31.27
2022-10-24T08:56:06.571Z,30.25
2022-10-24T08:58:42.894Z,33.90
2022-10-24T09:01:31.434Z,32.28
2022-10-24T09:04:03.890Z,37.45
2022-10-24T09:06:33.230Z,28.52
2022-10-24T09:09:09.614Z,32.30
2022-10-24T09:12:03.003Z,26.33
2022-10-24T09:14:32.825Z,27.92
2022-10-24T09:17:14.473Z,33.83
2022-10-24T09:19:48.907Z,36.55
2022-10-24T09:22:17.360Z,34.88
2022-10-24T09:24:53.589Z,30.23
2022-10-24T09:27:25.594Z,33.95
2022-10-24T09:29:53.225Z,37.08
2022-10-24T09:32:23.368Z,22.38
2022-10-24T09:34:50.823Z,29.13
2022-10-24T09:37:41.240Z,45.63
2022-10-24T09:40:19.192Z,31.02
2022-10-24T09:43:11.351Z,26.00
2022-10-24T09:45:42.265Z,30.05
2022-10-24T09:48:30.678Z,23.73
2022-10-24T09:50:59.886Z,24.38
2022-10-24T09:53:36.352Z,26.75
2022-10-24T09:56:13.191Z,22.92
2022-10-24T09:58:41.715Z,26.90
2022-10-24T10:01:29.474Z,31.85
2022-10-24T10:04:09.385Z,29.98
2022-10-24T10:06:48.207Z,24.13
2022-10-24T10:09:24.714Z,27.27
2022-10-24T10:12:03.019Z,35.25
2022-10-24T10:14:31.019Z,26.10
2022-10-24T10:17:05.271Z,20.88
2022-10-24T10:19:39.081Z,24.55
2022-10-24T10:22:23.685Z,31.50
2022-10-24T10:24:51.482Z,33.38
2022-10-24T10:27:40.409Z,24.98
2022-10-24T10:30:17.356Z,25.60
2022-10-24T10:32:53.548Z,22.80
2022-10-24T10:35:32.310Z,27.70
2022-10-24T10:38:17.675Z,24.35
2022-10-24T10:40:50.188Z,27.08
2022-10-24T10:43:36.459Z,24.98
2022-10-24T10:46:30.012Z,23.35
2022-10-24T10:49:15.310Z,27.70
2022-10-24T10:51:57.557Z,26.75
2022-10-24T10:54:52.928Z,43.88
2022-10-24T10:57:28.870Z,29.30
2022-10-24T11:00:08.734Z,25.95
2022-10-24T11:02:52.959Z,24.08
2022-10-24T11:05:58.314Z,28.30
2022-10-24T11:08:33.478Z,24.50
2022-10-24T11:11:05.300Z,27.48
2022-10-24T11:14:17.271Z,28.80
2022-10-24T11:16:45.858Z,31.40
2022-10-24T11:19:28.777Z,25.17
2022-10-24T11:22:00.510Z,26.05
2022-10-24T11:24:30.914Z,25.13
2022-10-24T11:27:09.334Z,27.27
2022-10-24T11:29:40.351Z,34.20
2022-10-24T11:32:20.781Z,22.93
2022-10-24T11:35:40.595Z,32.92
2022-10-24T11:38:16.072Z,25.23
2022-10-24T11:40:48.202Z,24.00
2022-10-24T11:46:38.660Z,25.25
2022-10-24T11:51:59.622Z,25.38
2022-10-24T11:54:35.037Z,23.67
2022-10-24T11:57:09.197Z,25.38
2022-10-24T11:59:39.710Z,17.90
2022-10-24T12:03:24.347Z,22.63
2022-10-24T12:06:17.620Z,19.17
2022-10-24T12:09:05.765Z,22.55
2022-10-24T12:11:51.862Z,21.35
2022-10-24T12:14:38.548Z,22.35
2022-10-24T12:17:31.043Z,24.88
2022-10-24T12:20:01.569Z,22.17
2022-10-24T12:22:36.228Z,17.77
2022-10-24T12:25:06.628Z,21.58
2022-10-24T12:27:38.937Z,22.85
2022-10-24T12:30:09.226Z,22.33
2022-10-24T12:32:43.355Z,19.38
2022-10-24T12:35:33.897Z,20.65
2022-10-24T12:38:15.471Z,20.58
2022-10-24T12:40:46.015Z,20.60
2022-10-24T12:43:30.159Z,16.80
2022-10-24T12:46:01.880Z,24.00
2022-10-24T12:48:31.381Z,18.80
2022-10-24T12:51:36.959Z,26.23
2022-10-24T12:54:13.410Z,20.42
2022-10-24T12:56:50.084Z,20.52
2022-10-24T12:59:29.551Z,29.65
2022-10-24T13:02:21.332Z,30.85
2022-10-24T13:04:52.385Z,28.60
2022-10-24T13:07:50.957Z,28.73
2022-10-24T13:10:33.771Z,34.20
2022-10-24T13:15:54.711Z,33.38
2022-10-24T13:18:31.115Z,34.03
2022-10-24T13:21:16.223Z,25.33
2022-10-24T13:23:46.773Z,28.55
2022-10-24T13:26:38.777Z,25.90
2022-10-24T13:29:12.625Z,26.77
2022-10-24T13:31:42.551Z,29.15
2022-10-24T13:34:23.156Z,22.27
2022-10-24T13:37:22.535Z,27.70
2022-10-24T13:39:55.320Z,26.52
2022-10-24T13:42:35.081Z,27.00
2022-10-24T13:45:25.708Z,25.20
2022-10-24T13:48:01.986Z,23.52
2022-10-24T13:50:33.653Z,23.00
2022-10-24T13:53:12.295Z,19.23
2022-10-24T13:55:44.175Z,29.08
2022-10-24T13:58:16.217Z,23.33
2022-10-24T14:00:47.635Z,31.20
2022-10-24T14:03:17.958Z,32.87
2022-10-24T14:05:51.962Z,28.23
2022-10-24T14:08:38.186Z,27.88
2022-10-24T14:11:08.511Z,27.83
2022-10-24T14:13:45.560Z,23.25
2022-10-24T14:16:13.622Z,26.90
2022-10-24T14:18:41.841Z,29.15
2022-10-24T14:21:22.766Z,25.77
2022-10-24T14:24:03.316Z,34.97
2022-10-24T14:26:30.989Z,25.55
2022-10-24T14:29:00.984Z,29.73
2022-10-24T14:31:34.753Z,25.30
2022-10-24T14:34:06.222Z,28.50
2022-10-24T14:36:37.868Z,28.10
2022-10-24T14:39:05.685Z,28.50
2022-10-24T14:41:40.995Z,29.92
2022-10-24T14:44:14.118Z,30.30
2022-10-24T14:46:44.633Z,30.63
2022-10-24T14:49:29.931Z,35.92
2022-10-24T14:52:08.972Z,26.08
2022-10-24T14:54:37.245Z,25.38
2022-10-24T14:57:10.250Z,30.38
2022-10-24T14:59:44.237Z,24.42
2022-10-24T15:02:23.623Z,26.27
2022-10-24T15:04:52.127Z,27.85
2022-10-24T15:07:40.727Z,21.25
2022-10-24T15:10:13.311Z,27.08
2022-10-24T15:12:53.453Z,21.20
2022-10-24T15:15:27.745Z,21.83
2022-10-24T15:17:59.637Z,19.98
2022-10-24T15:20:29.970Z,22.58
2022-10-24T15:23:00.967Z,28.55
2022-10-24T15:25:30.944Z,31.13
2022-10-24T15:27:59.533Z,26.38
2022-10-24T15:30:39.309Z,24.92
2022-10-24T15:33:06.981Z,22.92
2022-10-24T15:35:39.532Z,21.50
2022-10-24T15:38:17.431Z,24.17
2022-10-24T15:40:47.196Z,22.42
2022-10-24T15:43:17.700Z,25.55
2022-10-24T15:45:45.843Z,23.60
2022-10-24T15:48:13.309Z,26.98
2022-10-24T15:50:46.217Z,25.02
2022-10-24T15:53:19.742Z,27.08
2022-10-24T15:55:47.306Z,27.10
2022-10-24T15:58:16.742Z,31.25
2022-10-24T16:00:44.717Z,38.90
2022-10-24T16:03:17.441Z,29.95
2022-10-24T16:05:50.550Z,26.10
2022-10-24T16:08:19.842Z,25.02
2022-10-24T16:10:51.860Z,28.90
2022-10-24T16:13:21.861Z,32.38
2022-10-24T16:15:50.051Z,32.03
2022-10-24T16:18:17.663Z,28.02
2022-10-24T16:20:45.189Z,27.52
2022-10-24T16:23:16.095Z,25.90
2022-10-24T16:25:43.942Z,26.98
2022-10-24T16:28:11.568Z,24.20
2022-10-24T16:30:40.470Z,24.13
2022-10-24T16:33:08.355Z,29.55
2022-10-24T16:35:37.473Z,26.38
2022-10-24T16:38:06.857Z,22.73
2022-10-24T16:40:43.129Z,26.38
2022-10-24T16:43:12.516Z,20.45
2022-10-24T16:45:40.208Z,25.90
2022-10-24T16:48:07.707Z,28.00
2022-10-24T16:50:35.563Z,33.10
2022-10-24T16:53:07.003Z,26.95
2022-10-24T16:55:34.766Z,39.17
2022-10-24T16:58:02.223Z,31.65
2022-10-24T17:00:30.425Z,30.67
2022-10-24T17:02:58.553Z,32.83
2022-10-24T17:05:28.315Z,32.75
2022-10-24T17:07:55.762Z,34.28
2022-10-24T17:10:24.841Z,36.42
2022-10-24T17:12:53.374Z,30.60
2022-10-24T17:15:22.334Z,41.03
2022-10-24T17:17:50.307Z,35.20
2022-10-24T17:20:17.849Z,36.55
2022-10-24T17:22:46.527Z,36.42
2022-10-24T17:25:26.314Z,38.30
2022-10-24T17:27:55.107Z,37.03
2022-10-24T17:30:25.351Z,37.65
2022-10-24T17:32:53.449Z,36.40
2022-10-24T17:35:23.437Z,41.28
2022-10-24T17:37:50.799Z,35.63
2022-10-24T17:40:25.212Z,37.92
2022-10-24T17:42:52.861Z,40.60
2022-10-24T17:45:23.135Z,36.55
2022-10-24T17:47:50.935Z,35.15
2022-10-24T17:50:19.347Z,37.28
2022-10-24T17:52:50.988Z,59.50
2022-10-24T17:55:45.100Z,49.60
2022-10-24T17:58:12.788Z,36.08
2022-10-24T18:00:40.915Z,35.60
2022-10-24T18:03:11.321Z,33.95
2022-10-24T18:05:39.102Z,38.72
2022-10-24T18:08:09.054Z,38.47
2022-10-24T18:10:37.961Z,35.63
2022-10-24T18:13:05.878Z,33.75
2022-10-24T18:15:33.699Z,32.83
2022-10-24T18:18:01.144Z,36.88
2022-10-24T18:20:28.619Z,32.05
2022-10-24T18:22:56.087Z,35.35
2022-10-24T18:25:23.706Z,35.63
2022-10-24T18:27:51.482Z,30.15
2022-10-24T18:30:19.606Z,36.22
2022-10-24T18:32:47.506Z,35.15
2022-10-24T18:35:15.690Z,31.65
2022-10-24T18:37:43.227Z,38.28
2022-10-24T18:40:11.317Z,32.75
2022-10-24T18:43:05.251Z,35.92
2022-10-24T18:45:33.479Z,29.90
2022-10-24T18:48:01.342Z,38.67
2022-10-24T18:50:29.587Z,30.10
2022-10-24T18:53:08.329Z,37.15
2022-10-24T18:55:36.441Z,30.15
2022-10-24T18:58:04.108Z,31.27
2022-10-24T19:00:33.209Z,36.60
2022-10-24T19:03:25.165Z,43.33
2022-10-24T19:06:14.932Z,35.20
2022-10-24T19:08:42.454Z,33.28
2022-10-24T19:11:14.179Z,42.00
2022-10-24T19:13:44.733Z,32.08
2022-10-24T19:16:18.147Z,29.75
2022-10-24T19:18:54.125Z,35.10
2022-10-24T19:21:21.947Z,39.72
2022-10-24T19:23:50.882Z,42.13
2022-10-24T19:26:18.344Z,44.97
2022-10-24T19:28:45.780Z,40.63
2022-10-24T19:31:14.934Z,47.45
2022-10-24T19:33:42.673Z,41.17
2022-10-24T19:36:13.339Z,43.13
2022-10-24T19:38:44.277Z,42.42
2022-10-24T19:41:11.790Z,39.63
2022-10-24T19:43:39.317Z,33.92
2022-10-24T19:46:18.722Z,42.30
2022-10-24T19:48:51.246Z,44.50
2022-10-24T19:51:20.185Z,41.33
2022-10-24T19:53:49.695Z,41.22
2022-10-24T19:56:25.225Z,37.72
2022-10-24T19:58:54.222Z,39.42
2022-10-24T20:01:24.670Z,46.75
2022-10-24T20:03:52.593Z,48.00
2022-10-24T20:06:20.055Z,38.38
2022-10-24T20:08:48.539Z,42.00
2022-10-24T20:11:16.841Z,45.30
2022-10-24T20:13:44.424Z,43.72
2022-10-24T20:16:13.409Z,46.67
2022-10-24T20:18:43.019Z,46.35
2022-10-24T20:21:12.283Z,47.67
2022-10-24T20:23:41.614Z,42.33
2022-10-24T20:26:15.150Z,44.58
2022-10-24T20:28:45.282Z,38.05
2022-10-24T20:31:30.360Z,29.55
2022-10-24T20:34:06.900Z,38.30
2022-10-24T20:36:38.082Z,38.30
2022-10-24T20:39:07.257Z,39.72
2022-10-24T20:41:35.016Z,45.15
2022-10-24T20:44:02.962Z,37.67
2022-10-24T20:46:31.484Z,39.22
2022-10-24T20:48:59.264Z,38.70
2022-10-24T20:51:27.156Z,52.33
2022-10-24T20:53:54.783Z,37.67
2022-10-24T20:56:26.087Z,39.38
2022-10-24T20:58:55.064Z,36.75
2022-10-24T21:01:24.997Z,42.85
2022-10-24T21:03:53.198Z,43.75
2022-10-24T21:06:26.717Z,36.72
2022-10-24T21:08:56.894Z,40.28
2022-10-24T21:11:27.687Z,37.72
2022-10-24T21:14:07.389Z,41.90
2022-10-24T21:16:34.870Z,38.40
2022-10-24T21:19:02.979Z,42.90
2022-10-24T21:21:30.482Z,38.92
2022-10-24T21:24:03.819Z,36.35
2022-10-24T21:26:38.302Z,38.13
2022-10-24T21:29:09.430Z,38.15
2022-10-24T21:31:51.403Z,42.25
2022-10-24T21:34:19.703Z,38.30
2022-10-24T21:36:47.388Z,37.65
2022-10-24T21:39:16.162Z,38.95
2022-10-24T21:41:44.159Z,33.63
2022-10-24T21:44:11.966Z,37.65
2022-10-24T21:46:39.359Z,39.95
2022-10-24T21:49:06.824Z,39.03
2022-10-24T21:51:36.884Z,37.15
2022-10-24T21:54:08.237Z,34.25
2022-10-24T21:56:36.815Z,34.90
2022-10-24T21:59:06.601Z,39.50
2022-10-24T22:01:37.062Z,40.40
2022-10-24T22:04:06.193Z,38.38
2022-10-24T22:06:35.400Z,38.13
2022-10-24T22:09:04.669Z,32.70
2022-10-24T22:11:34.038Z,44.08
2022-10-24T22:14:03.311Z,37.90
2022-10-24T22:16:32.108Z,37.08
2022-10-24T22:19:01.668Z,38.15
2022-10-24T22:21:37.708Z,37.65
2022-10-24T22:24:13.978Z,36.42
2022-10-24T22:26:41.839Z,40.88
2022-10-24T22:29:10.833Z,42.60
2022-10-24T22:31:38.718Z,44.97
2022-10-24T22:34:06.529Z,37.63
2022-10-24T22:36:45.822Z,39.75
2022-10-24T22:39:16.684Z,40.85
2022-10-24T22:41:45.764Z,41.80
2022-10-24T22:44:15.303Z,42.78
2022-10-24T22:47:07.116Z,41.10
2022-10-24T22:49:52.785Z,46.53
2022-10-24T22:52:20.594Z,39.72
2022-10-24T22:54:48.294Z,40.53
2022-10-24T22:57:16.045Z,36.70
2022-10-24T22:59:43.726Z,38.60
2022-10-24T23:02:33.943Z,37.45
2022-10-24T23:05:05.986Z,37.97
2022-10-24T23:07:49.329Z,36.58
2022-10-24T23:10:21.942Z,40.83
2022-10-24T23:12:50.125Z,40.33
2022-10-24T23:15:19.752Z,39.22
2022-10-24T23:17:48.425Z,33.42
2022-10-24T23:20:27.822Z,49.28
2022-10-24T23:23:09.054Z,40.95
2022-10-24T23:25:49.680Z,37.75
2022-10-24T23:28:30.370Z,32.08
2022-10-24T23:30:57.935Z,35.00
2022-10-24T23:33:28.759Z,40.53
2022-10-24T23:36:00.052Z,33.67
2022-10-24T23:38:28.000Z,33.15
2022-10-24T23:40:55.891Z,36.03
2022-10-24T23:43:23.618Z,34.60
2022-10-24T23:46:02.096Z,34.90
2022-10-24T23:49:00.546Z,36.25
2022-10-24T23:51:43.684Z,38.00
2022-10-24T23:54:12.657Z,33.78
2022-10-24T23:56:40.607Z,41.35
2022-10-24T23:59:08.072Z,34.72
